sensor_id;sensor_type;location;lat;lon;timestamp;pressure;altitude;pressure_sealevel;temperature;humidity
41202;BME280;26936;50.524;8.684;2022-07-22T00:01:26;99772.28;;;19.16;92.32
41202;BME280;26936;50.524;8.684;2022-07-22T00:03:52;99784.56;;;19.22;91.67
41202;BME280;26936;50.524;8.684;2022-07-22T00:06:17;99781.47;;;19.25;91.21
41202;BME280;26936;50.524;8.684;2022-07-22T00:08:42;99781.75;;;19.27;90.93
41202;BME280;26936;50.524;8.684;2022-07-22T00:11:08;99776.56;;;19.26;91.29
41202;BME280;26936;50.524;8.684;2022-07-22T00:13:33;99782.56;;;19.28;91.17
41202;BME280;26936;50.524;8.684;2022-07-22T00:15:58;99785.63;;;19.24;91.54
41202;BME280;26936;50.524;8.684;2022-07-22T00:18:24;99779.38;;;19.20;91.20
41202;BME280;26936;50.524;8.684;2022-07-22T00:20:50;99776.72;;;19.17;91.97
41202;BME280;26936;50.524;8.684;2022-07-22T00:23:15;99778.50;;;19.14;92.28
41202;BME280;26936;50.524;8.684;2022-07-22T00:25:41;99776.94;;;19.13;92.79
41202;BME280;26936;50.524;8.684;2022-07-22T00:28:06;99775.34;;;19.12;93.18
41202;BME280;26936;50.524;8.684;2022-07-22T00:30:31;99771.78;;;19.17;92.91
41202;BME280;26936;50.524;8.684;2022-07-22T00:32:57;99778.78;;;19.16;92.72
41202;BME280;26936;50.524;8.684;2022-07-22T00:35:22;99789.16;;;19.14;92.55
41202;BME280;26936;50.524;8.684;2022-07-22T00:37:48;99779.72;;;19.08;92.57
41202;BME280;26936;50.524;8.684;2022-07-22T00:40:13;99767.53;;;19.07;91.29
41202;BME280;26936;50.524;8.684;2022-07-22T00:42:39;99777.16;;;19.10;91.35
41202;BME280;26936;50.524;8.684;2022-07-22T00:45:05;99775.22;;;19.01;91.77
41202;BME280;26936;50.524;8.684;2022-07-22T00:47:31;99779.59;;;18.97;92.08
41202;BME280;26936;50.524;8.684;2022-07-22T00:49:57;99768.25;;;19.02;91.66
41202;BME280;26936;50.524;8.684;2022-07-22T00:52:22;99770.75;;;18.94;91.48
41202;BME280;26936;50.524;8.684;2022-07-22T00:54:48;99760.19;;;19.01;90.73
41202;BME280;26936;50.524;8.684;2022-07-22T00:57:14;99767.88;;;18.94;90.35
41202;BME280;26936;50.524;8.684;2022-07-22T00:59:39;99757.34;;;19.01;90.17
41202;BME280;26936;50.524;8.684;2022-07-22T01:02:05;99757.78;;;18.93;90.67
41202;BME280;26936;50.524;8.684;2022-07-22T01:04:30;99759.09;;;18.98;90.22
41202;BME280;26936;50.524;8.684;2022-07-22T01:06:55;99753.69;;;19.00;89.83
41202;BME280;26936;50.524;8.684;2022-07-22T01:09:21;99755.19;;;18.96;89.08
41202;BME280;26936;50.524;8.684;2022-07-22T01:11:46;99763.19;;;18.91;89.71
41202;BME280;26936;50.524;8.684;2022-07-22T01:14:12;99755.47;;;18.98;89.32
41202;BME280;26936;50.524;8.684;2022-07-22T01:16:37;99765.25;;;18.91;89.96
41202;BME280;26936;50.524;8.684;2022-07-22T01:19:04;99762.38;;;18.91;90.46
41202;BME280;26936;50.524;8.684;2022-07-22T01:21:29;99767.84;;;18.89;90.75
41202;BME280;26936;50.524;8.684;2022-07-22T01:23:56;99772.31;;;18.75;92.01
41202;BME280;26936;50.524;8.684;2022-07-22T01:26:22;99767.69;;;18.78;91.55
41202;BME280;26936;50.524;8.684;2022-07-22T01:28:47;99763.34;;;18.82;91.28
41202;BME280;26936;50.524;8.684;2022-07-22T01:31:12;99761.00;;;18.81;91.45
41202;BME280;26936;50.524;8.684;2022-07-22T01:33:38;99759.50;;;18.85;91.64
41202;BME280;26936;50.524;8.684;2022-07-22T01:36:04;99766.03;;;18.91;91.51
41202;BME280;26936;50.524;8.684;2022-07-22T01:38:30;99758.28;;;18.92;91.09
41202;BME280;26936;50.524;8.684;2022-07-22T01:40:55;99748.91;;;18.91;90.64
41202;BME280;26936;50.524;8.684;2022-07-22T01:43:21;99758.69;;;18.85;91.35
41202;BME280;26936;50.524;8.684;2022-07-22T01:45:50;99750.44;;;18.87;90.93
41202;BME280;26936;50.524;8.684;2022-07-22T01:48:16;99753.81;;;18.91;90.74
41202;BME280;26936;50.524;8.684;2022-07-22T01:50:42;99761.63;;;18.90;91.08
41202;BME280;26936;50.524;8.684;2022-07-22T01:53:08;99760.63;;;18.93;91.03
41202;BME280;26936;50.524;8.684;2022-07-22T01:55:33;99757.47;;;18.91;90.87
41202;BME280;26936;50.524;8.684;2022-07-22T01:57:59;99753.81;;;18.91;90.60
41202;BME280;26936;50.524;8.684;2022-07-22T02:00:24;99762.38;;;18.91;90.56
41202;BME280;26936;50.524;8.684;2022-07-22T02:02:49;99757.19;;;18.89;90.74
41202;BME280;26936;50.524;8.684;2022-07-22T02:05:15;99760.63;;;18.93;90.64
41202;BME280;26936;50.524;8.684;2022-07-22T02:07:40;99759.63;;;18.97;90.69
41202;BME280;26936;50.524;8.684;2022-07-22T02:10:06;99751.84;;;18.97;90.45
41202;BME280;26936;50.524;8.684;2022-07-22T02:12:32;99764.31;;;19.00;90.25
41202;BME280;26936;50.524;8.684;2022-07-22T02:14:57;99755.97;;;18.96;90.20
41202;BME280;26936;50.524;8.684;2022-07-22T02:17:22;99743.78;;;18.96;90.32
41202;BME280;26936;50.524;8.684;2022-07-22T02:19:47;99751.56;;;18.95;90.39
41202;BME280;26936;50.524;8.684;2022-07-22T02:22:13;99746.84;;;18.92;90.62
41202;BME280;26936;50.524;8.684;2022-07-22T02:24:38;99741.16;;;18.92;90.31
41202;BME280;26936;50.524;8.684;2022-07-22T02:27:04;99742.41;;;18.91;90.55
41202;BME280;26936;50.524;8.684;2022-07-22T02:29:29;99743.72;;;18.90;90.75
41202;BME280;26936;50.524;8.684;2022-07-22T02:31:55;99749.91;;;18.88;90.74
41202;BME280;26936;50.524;8.684;2022-07-22T02:34:20;99746.78;;;18.86;90.82
41202;BME280;26936;50.524;8.684;2022-07-22T02:36:45;99744.13;;;18.83;90.91
41202;BME280;26936;50.524;8.684;2022-07-22T02:39:11;99751.66;;;18.80;90.84
41202;BME280;26936;50.524;8.684;2022-07-22T02:41:36;99748.41;;;18.73;91.28
41202;BME280;26936;50.524;8.684;2022-07-22T02:44:02;99747.06;;;18.68;91.54
41202;BME280;26936;50.524;8.684;2022-07-22T02:46:27;99747.00;;;18.63;91.81
41202;BME280;26936;50.524;8.684;2022-07-22T02:48:56;99746.13;;;18.57;92.12
41202;BME280;26936;50.524;8.684;2022-07-22T02:51:21;99736.22;;;18.52;92.18
41202;BME280;26936;50.524;8.684;2022-07-22T02:53:47;99741.66;;;18.50;92.31
41202;BME280;26936;50.524;8.684;2022-07-22T02:56:12;99749.16;;;18.48;92.62
41202;BME280;26936;50.524;8.684;2022-07-22T02:58:38;99747.00;;;18.43;93.10
41202;BME280;26936;50.524;8.684;2022-07-22T03:01:04;99746.41;;;18.39;93.36
41202;BME280;26936;50.524;8.684;2022-07-22T03:03:29;99755.38;;;18.32;93.56
41202;BME280;26936;50.524;8.684;2022-07-22T03:05:54;99755.47;;;18.23;94.02
41202;BME280;26936;50.524;8.684;2022-07-22T03:08:20;99753.44;;;18.23;93.96
41202;BME280;26936;50.524;8.684;2022-07-22T03:10:45;99764.66;;;18.12;94.49
41202;BME280;26936;50.524;8.684;2022-07-22T03:13:10;99767.72;;;18.09;94.92
41202;BME280;26936;50.524;8.684;2022-07-22T03:15:36;99763.22;;;18.02;95.59
41202;BME280;26936;50.524;8.684;2022-07-22T03:18:01;99764.91;;;17.94;96.02
41202;BME280;26936;50.524;8.684;2022-07-22T03:20:26;99766.66;;;17.92;96.79
41202;BME280;26936;50.524;8.684;2022-07-22T03:22:52;99771.09;;;17.93;97.14
41202;BME280;26936;50.524;8.684;2022-07-22T03:25:17;99767.34;;;17.87;97.77
41202;BME280;26936;50.524;8.684;2022-07-22T03:27:42;99769.44;;;17.86;97.85
41202;BME280;26936;50.524;8.684;2022-07-22T03:30:08;99769.84;;;17.79;98.27
41202;BME280;26936;50.524;8.684;2022-07-22T03:32:33;99769.53;;;17.77;98.24
41202;BME280;26936;50.524;8.684;2022-07-22T03:34:59;99772.69;;;17.79;98.40
41202;BME280;26936;50.524;8.684;2022-07-22T03:37:24;99774.47;;;17.77;98.33
41202;BME280;26936;50.524;8.684;2022-07-22T03:39:49;99770.53;;;17.74;98.75
41202;BME280;26936;50.524;8.684;2022-07-22T03:42:14;99775.16;;;17.72;99.33
41202;BME280;26936;50.524;8.684;2022-07-22T03:44:40;99769.94;;;17.70;99.65
41202;BME280;26936;50.524;8.684;2022-07-22T03:47:05;99773.88;;;17.73;100.00
41202;BME280;26936;50.524;8.684;2022-07-22T03:49:31;99767.19;;;17.76;100.00
41202;BME280;26936;50.524;8.684;2022-07-22T03:51:57;99766.88;;;17.74;100.00
41202;BME280;26936;50.524;8.684;2022-07-22T03:54:22;99767.47;;;17.78;100.00
41202;BME280;26936;50.524;8.684;2022-07-22T03:56:48;99770.63;;;17.80;100.00
41202;BME280;26936;50.524;8.684;2022-07-22T03:59:13;99773.28;;;17.83;99.92
41202;BME280;26936;50.524;8.684;2022-07-22T04:01:38;99784.94;;;17.85;99.33
41202;BME280;26936;50.524;8.684;2022-07-22T04:04:04;99781.59;;;17.87;99.82
41202;BME280;26936;50.524;8.684;2022-07-22T04:06:29;99783.97;;;17.88;100.00
41202;BME280;26936;50.524;8.684;2022-07-22T04:08:54;99780.84;;;17.86;100.00
41202;BME280;26936;50.524;8.684;2022-07-22T04:11:20;99782.19;;;17.91;100.00
41202;BME280;26936;50.524;8.684;2022-07-22T04:13:45;99781.50;;;17.96;100.00
41202;BME280;26936;50.524;8.684;2022-07-22T04:16:11;99775.81;;;17.96;99.94
41202;BME280;26936;50.524;8.684;2022-07-22T04:18:36;99782.31;;;17.96;99.76
41202;BME280;26936;50.524;8.684;2022-07-22T04:21:02;99775.41;;;18.03;99.72
41202;BME280;26936;50.524;8.684;2022-07-22T04:23:28;99785.53;;;18.04;99.11
41202;BME280;26936;50.524;8.684;2022-07-22T04:25:53;99783.97;;;18.03;99.17
41202;BME280;26936;50.524;8.684;2022-07-22T04:28:18;99781.47;;;18.10;98.72
41202;BME280;26936;50.524;8.684;2022-07-22T04:30:44;99777.63;;;18.13;98.46
41202;BME280;26936;50.524;8.684;2022-07-22T04:33:09;99782.19;;;18.05;98.84
41202;BME280;26936;50.524;8.684;2022-07-22T04:35:34;99786.19;;;18.13;98.86
41202;BME280;26936;50.524;8.684;2022-07-22T04:38:00;99780.00;;;18.15;98.95
41202;BME280;26936;50.524;8.684;2022-07-22T04:40:25;99782.13;;;18.20;98.67
41202;BME280;26936;50.524;8.684;2022-07-22T04:42:50;99779.28;;;18.20;98.50
41202;BME280;26936;50.524;8.684;2022-07-22T04:45:16;99778.00;;;18.21;97.89
41202;BME280;26936;50.524;8.684;2022-07-22T04:47:41;99777.31;;;18.26;97.48
41202;BME280;26936;50.524;8.684;2022-07-22T04:50:07;99779.94;;;18.29;96.94
41202;BME280;26936;50.524;8.684;2022-07-22T04:52:32;99779.44;;;18.31;97.30
41202;BME280;26936;50.524;8.684;2022-07-22T04:54:57;99776.81;;;18.27;96.70
41202;BME280;26936;50.524;8.684;2022-07-22T04:57:24;99777.19;;;18.35;95.89
41202;BME280;26936;50.524;8.684;2022-07-22T04:59:50;99781.59;;;18.36;95.40
41202;BME280;26936;50.524;8.684;2022-07-22T05:02:15;99776.53;;;18.40;94.43
41202;BME280;26936;50.524;8.684;2022-07-22T05:04:41;99778.38;;;18.43;94.01
41202;BME280;26936;50.524;8.684;2022-07-22T05:07:06;99783.66;;;18.50;94.13
41202;BME280;26936;50.524;8.684;2022-07-22T05:09:31;99773.09;;;18.56;93.69
41202;BME280;26936;50.524;8.684;2022-07-22T05:11:56;99776.16;;;18.52;93.54
41202;BME280;26936;50.524;8.684;2022-07-22T05:14:22;99776.16;;;18.52;92.70
41202;BME280;26936;50.524;8.684;2022-07-22T05:16:47;99781.47;;;18.59;91.89
41202;BME280;26936;50.524;8.684;2022-07-22T05:19:12;99773.47;;;18.63;91.50
41202;BME280;26936;50.524;8.684;2022-07-22T05:21:38;99774.34;;;18.69;91.84
41202;BME280;26936;50.524;8.684;2022-07-22T05:24:03;99773.69;;;18.80;91.66
41202;BME280;26936;50.524;8.684;2022-07-22T05:26:29;99777.16;;;18.89;91.01
41202;BME280;26936;50.524;8.684;2022-07-22T05:28:56;99763.53;;;18.99;89.75
41202;BME280;26936;50.524;8.684;2022-07-22T05:31:21;99768.81;;;19.06;87.95
41202;BME280;26936;50.524;8.684;2022-07-22T05:33:47;99773.88;;;19.17;86.78
41202;BME280;26936;50.524;8.684;2022-07-22T05:36:12;99766.06;;;19.17;85.49
41202;BME280;26936;50.524;8.684;2022-07-22T05:38:37;99765.41;;;19.28;85.10
41202;BME280;26936;50.524;8.684;2022-07-22T05:41:03;99761.38;;;19.34;84.70
41202;BME280;26936;50.524;8.684;2022-07-22T05:43:28;99767.53;;;19.53;84.12
41202;BME280;26936;50.524;8.684;2022-07-22T05:48:19;99762.38;;;19.88;81.70
41202;BME280;26936;50.524;8.684;2022-07-22T05:50:44;99761.88;;;20.20;80.77
41202;BME280;26936;50.524;8.684;2022-07-22T05:53:09;99764.47;;;20.66;77.75
41202;BME280;26936;50.524;8.684;2022-07-22T05:55:34;99758.53;;;21.34;75.17
41202;BME280;26936;50.524;8.684;2022-07-22T05:58:00;99759.06;;;21.54;74.17
41202;BME280;26936;50.524;8.684;2022-07-22T06:00:25;99762.47;;;21.64;71.56
41202;BME280;26936;50.524;8.684;2022-07-22T06:02:50;99767.97;;;21.95;71.34
41202;BME280;26936;50.524;8.684;2022-07-22T06:05:16;99774.75;;;22.09;69.74
41202;BME280;26936;50.524;8.684;2022-07-22T06:07:41;99769.75;;;22.42;68.96
41202;BME280;26936;50.524;8.684;2022-07-22T06:10:06;99767.91;;;22.50;67.87
41202;BME280;26936;50.524;8.684;2022-07-22T06:12:32;99779.44;;;22.28;68.35
41202;BME280;26936;50.524;8.684;2022-07-22T06:14:57;99771.09;;;22.03;68.60
41202;BME280;26936;50.524;8.684;2022-07-22T06:17:22;99771.09;;;21.81;68.98
41202;BME280;26936;50.524;8.684;2022-07-22T06:19:48;99770.25;;;21.52;70.36
41202;BME280;26936;50.524;8.684;2022-07-22T06:22:13;99769.50;;;21.58;70.62
41202;BME280;26936;50.524;8.684;2022-07-22T06:24:38;99775.25;;;21.63;70.55
41202;BME280;26936;50.524;8.684;2022-07-22T06:27:03;99772.63;;;21.60;69.94
41202;BME280;26936;50.524;8.684;2022-07-22T06:29:29;99784.88;;;21.60;70.25
41202;BME280;26936;50.524;8.684;2022-07-22T06:31:54;99787.75;;;21.71;70.07
41202;BME280;26936;50.524;8.684;2022-07-22T06:34:20;99784.84;;;21.54;70.29
41202;BME280;26936;50.524;8.684;2022-07-22T06:36:45;99779.91;;;21.55;69.46
41202;BME280;26936;50.524;8.684;2022-07-22T06:39:11;99782.78;;;21.55;69.57
41202;BME280;26936;50.524;8.684;2022-07-22T06:41:36;99789.81;;;21.54;69.79
41202;BME280;26936;50.524;8.684;2022-07-22T06:44:02;99783.78;;;21.52;69.78
41202;BME280;26936;50.524;8.684;2022-07-22T06:46:27;99775.78;;;22.22;67.12
41202;BME280;26936;50.524;8.684;2022-07-22T06:48:52;99776.97;;;22.82;65.22
41202;BME280;26936;50.524;8.684;2022-07-22T06:51:17;99775.75;;;23.29;62.05
41202;BME280;26936;50.524;8.684;2022-07-22T06:53:43;99766.03;;;23.73;60.58
41202;BME280;26936;50.524;8.684;2022-07-22T06:56:08;99757.56;;;24.21;58.49
41202;BME280;26936;50.524;8.684;2022-07-22T06:58:33;99758.94;;;24.87;55.77
41202;BME280;26936;50.524;8.684;2022-07-22T07:00:58;99752.16;;;25.46;54.42
41202;BME280;26936;50.524;8.684;2022-07-22T07:03:24;99753.34;;;26.32;51.95
41202;BME280;26936;50.524;8.684;2022-07-22T07:05:51;99753.31;;;26.77;50.62
41202;BME280;26936;50.524;8.684;2022-07-22T07:08:16;99753.59;;;27.38;48.69
41202;BME280;26936;50.524;8.684;2022-07-22T07:10:41;99749.41;;;27.60;47.91
41202;BME280;26936;50.524;8.684;2022-07-22T07:13:07;99753.03;;;27.73;46.21
41202;BME280;26936;50.524;8.684;2022-07-22T07:15:32;99744.72;;;28.32;44.79
41202;BME280;26936;50.524;8.684;2022-07-22T07:17:57;99745.69;;;28.06;44.81
41202;BME280;26936;50.524;8.684;2022-07-22T07:20:24;99744.31;;;26.93;46.82
41202;BME280;26936;50.524;8.684;2022-07-22T07:22:49;99751.69;;;27.74;46.06
41202;BME280;26936;50.524;8.684;2022-07-22T07:25:15;99748.97;;;28.10;45.26
41202;BME280;26936;50.524;8.684;2022-07-22T07:27:40;99749.78;;;28.59;44.26
41202;BME280;26936;50.524;8.684;2022-07-22T07:30:06;99740.44;;;28.25;45.39
41202;BME280;26936;50.524;8.684;2022-07-22T07:32:32;99751.94;;;28.94;44.24
41202;BME280;26936;50.524;8.684;2022-07-22T07:34:57;99744.09;;;29.02;43.29
41202;BME280;26936;50.524;8.684;2022-07-22T07:37:22;99740.75;;;28.98;42.75
41202;BME280;26936;50.524;8.684;2022-07-22T07:39:48;99740.97;;;29.00;43.61
41202;BME280;26936;50.524;8.684;2022-07-22T07:42:13;99742.66;;;29.24;42.99
41202;BME280;26936;50.524;8.684;2022-07-22T07:44:38;99727.25;;;29.44;42.34
41202;BME280;26936;50.524;8.684;2022-07-22T07:47:04;99730.06;;;29.72;41.07
41202;BME280;26936;50.524;8.684;2022-07-22T07:49:29;99725.31;;;29.47;42.54
41202;BME280;26936;50.524;8.684;2022-07-22T07:51:54;99727.78;;;30.16;40.47
41202;BME280;26936;50.524;8.684;2022-07-22T07:54:20;99724.34;;;30.47;40.12
41202;BME280;26936;50.524;8.684;2022-07-22T07:56:45;99718.38;;;29.50;41.57
41202;BME280;26936;50.524;8.684;2022-07-22T07:59:10;99714.22;;;30.11;40.91
41202;BME280;26936;50.524;8.684;2022-07-22T08:01:36;99708.31;;;29.43;42.86
41202;BME280;26936;50.524;8.684;2022-07-22T08:04:01;99711.81;;;29.57;42.33
41202;BME280;26936;50.524;8.684;2022-07-22T08:06:26;99711.63;;;29.62;42.29
41202;BME280;26936;50.524;8.684;2022-07-22T08:08:52;99707.44;;;30.01;41.51
41202;BME280;26936;50.524;8.684;2022-07-22T08:11:17;99715.66;;;29.52;41.20
41202;BME280;26936;50.524;8.684;2022-07-22T08:13:42;99704.97;;;30.42;40.06
41202;BME280;26936;50.524;8.684;2022-07-22T08:16:08;99706.13;;;30.02;39.88
41202;BME280;26936;50.524;8.684;2022-07-22T08:18:33;99706.50;;;30.21;40.05
41202;BME280;26936;50.524;8.684;2022-07-22T08:20:58;99707.47;;;30.38;39.40
41202;BME280;26936;50.524;8.684;2022-07-22T08:23:23;99708.97;;;30.85;39.31
41202;BME280;26936;50.524;8.684;2022-07-22T08:25:49;99715.84;;;31.12;38.88
41202;BME280;26936;50.524;8.684;2022-07-22T08:28:14;99703.16;;;30.85;37.80
41202;BME280;26936;50.524;8.684;2022-07-22T08:30:39;99702.41;;;30.62;39.05
41202;BME280;26936;50.524;8.684;2022-07-22T08:33:05;99701.53;;;30.99;38.54
41202;BME280;26936;50.524;8.684;2022-07-22T08:35:31;99707.03;;;30.80;39.74
41202;BME280;26936;50.524;8.684;2022-07-22T08:37:56;99708.78;;;31.30;38.60
41202;BME280;26936;50.524;8.684;2022-07-22T08:40:22;99702.88;;;31.13;38.03
41202;BME280;26936;50.524;8.684;2022-07-22T08:42:48;99703.22;;;30.02;40.35
41202;BME280;26936;50.524;8.684;2022-07-22T08:45:15;99696.22;;;29.82;41.62
41202;BME280;26936;50.524;8.684;2022-07-22T08:47:43;99687.91;;;30.01;40.53
41202;BME280;26936;50.524;8.684;2022-07-22T08:50:09;99686.75;;;29.97;40.45
41202;BME280;26936;50.524;8.684;2022-07-22T08:52:35;99684.16;;;30.61;40.01
41202;BME280;26936;50.524;8.684;2022-07-22T08:55:03;99686.84;;;30.74;39.54
41202;BME280;26936;50.524;8.684;2022-07-22T08:57:28;99677.78;;;31.32;37.93
41202;BME280;26936;50.524;8.684;2022-07-22T08:59:58;99672.31;;;31.29;37.55
41202;BME280;26936;50.524;8.684;2022-07-22T09:02:25;99683.34;;;31.38;37.37
41202;BME280;26936;50.524;8.684;2022-07-22T09:05:01;99674.94;;;31.49;35.93
41202;BME280;26936;50.524;8.684;2022-07-22T09:07:38;99676.09;;;31.07;36.17
41202;BME280;26936;50.524;8.684;2022-07-22T09:10:07;99678.75;;;30.80;38.74
41202;BME280;26936;50.524;8.684;2022-07-22T09:12:33;99679.44;;;31.03;37.74
41202;BME280;26936;50.524;8.684;2022-07-22T09:15:01;99679.81;;;31.47;38.15
41202;BME280;26936;50.524;8.684;2022-07-22T09:17:30;99679.63;;;31.45;37.70
41202;BME280;26936;50.524;8.684;2022-07-22T09:19:58;99682.66;;;31.62;37.05
41202;BME280;26936;50.524;8.684;2022-07-22T09:22:51;99681.16;;;31.46;36.90
41202;BME280;26936;50.524;8.684;2022-07-22T09:27:42;99684.84;;;31.78;37.33
41202;BME280;26936;50.524;8.684;2022-07-22T09:30:12;99683.59;;;31.64;37.00
41202;BME280;26936;50.524;8.684;2022-07-22T09:32:40;99690.00;;;31.95;36.65
41202;BME280;26936;50.524;8.684;2022-07-22T09:35:06;99691.13;;;31.67;37.16
41202;BME280;26936;50.524;8.684;2022-07-22T09:37:31;99692.19;;;31.87;36.96
41202;BME280;26936;50.524;8.684;2022-07-22T09:40:12;99692.47;;;32.23;36.11
41202;BME280;26936;50.524;8.684;2022-07-22T09:43:07;99683.63;;;32.14;34.79
41202;BME280;26936;50.524;8.684;2022-07-22T09:45:44;99672.25;;;31.76;36.71
41202;BME280;26936;50.524;8.684;2022-07-22T09:48:11;99671.84;;;31.79;37.85
41202;BME280;26936;50.524;8.684;2022-07-22T09:50:37;99678.03;;;32.08;37.19
41202;BME280;26936;50.524;8.684;2022-07-22T09:53:03;99676.38;;;31.98;37.29
41202;BME280;26936;50.524;8.684;2022-07-22T09:55:29;99665.72;;;32.17;35.02
41202;BME280;26936;50.524;8.684;2022-07-22T09:57:56;99668.88;;;32.12;35.50
41202;BME280;26936;50.524;8.684;2022-07-22T10:00:23;99666.34;;;31.83;35.95
41202;BME280;26936;50.524;8.684;2022-07-22T10:02:57;99662.66;;;31.91;35.49
41202;BME280;26936;50.524;8.684;2022-07-22T10:05:26;99651.28;;;32.02;36.04
41202;BME280;26936;50.524;8.684;2022-07-22T10:07:52;99652.22;;;32.05;37.17
41202;BME280;26936;50.524;8.684;2022-07-22T10:10:21;99649.28;;;32.29;36.38
41202;BME280;26936;50.524;8.684;2022-07-22T10:12:51;99647.16;;;32.30;36.12
41202;BME280;26936;50.524;8.684;2022-07-22T10:15:17;99638.97;;;32.53;35.78
41202;BME280;26936;50.524;8.684;2022-07-22T10:17:45;99631.56;;;32.52;35.04
41202;BME280;26936;50.524;8.684;2022-07-22T10:20:16;99638.09;;;32.43;36.75
41202;BME280;26936;50.524;8.684;2022-07-22T10:25:09;99632.00;;;32.65;35.84
41202;BME280;26936;50.524;8.684;2022-07-22T10:27:48;99633.66;;;32.59;35.19
41202;BME280;26936;50.524;8.684;2022-07-22T10:30:15;99623.06;;;33.15;34.78
41202;BME280;26936;50.524;8.684;2022-07-22T10:32:41;99625.31;;;33.07;34.96
41202;BME280;26936;50.524;8.684;2022-07-22T10:45:24;99612.25;;;33.08;34.33
41202;BME280;26936;50.524;8.684;2022-07-22T10:47:54;99611.16;;;32.86;33.29
41202;BME280;26936;50.524;8.684;2022-07-22T10:53:00;99610.75;;;32.38;33.86
41202;BME280;26936;50.524;8.684;2022-07-22T10:55:26;99608.00;;;31.99;34.42
41202;BME280;26936;50.524;8.684;2022-07-22T10:57:51;99614.66;;;31.42;36.00
41202;BME280;26936;50.524;8.684;2022-07-22T11:00:17;99612.31;;;31.41;35.77
41202;BME280;26936;50.524;8.684;2022-07-22T11:02:42;99610.91;;;31.49;36.97
41202;BME280;26936;50.524;8.684;2022-07-22T11:05:08;99606.50;;;31.41;35.79
41202;BME280;26936;50.524;8.684;2022-07-22T11:07:34;99602.34;;;31.19;37.47
41202;BME280;26936;50.524;8.684;2022-07-22T11:12:35;99593.09;;;31.06;37.99
41202;BME280;26936;50.524;8.684;2022-07-22T11:15:01;99585.97;;;30.99;38.44
41202;BME280;26936;50.524;8.684;2022-07-22T11:17:26;99592.63;;;31.24;37.63
41202;BME280;26936;50.524;8.684;2022-07-22T11:19:52;99597.72;;;31.16;37.79
41202;BME280;26936;50.524;8.684;2022-07-22T11:22:18;99588.69;;;31.37;37.21
41202;BME280;26936;50.524;8.684;2022-07-22T11:24:48;99581.19;;;31.19;37.77
41202;BME280;26936;50.524;8.684;2022-07-22T11:27:15;99589.97;;;31.11;36.90
41202;BME280;26936;50.524;8.684;2022-07-22T11:29:41;99573.47;;;30.04;38.21
41202;BME280;26936;50.524;8.684;2022-07-22T11:32:12;99578.44;;;30.41;38.16
41202;BME280;26936;50.524;8.684;2022-07-22T11:34:41;99575.19;;;30.15;39.95
41202;BME280;26936;50.524;8.684;2022-07-22T11:37:08;99571.09;;;30.10;39.43
41202;BME280;26936;50.524;8.684;2022-07-22T11:39:34;99571.91;;;29.96;39.44
41202;BME280;26936;50.524;8.684;2022-07-22T11:42:00;99566.50;;;29.85;40.31
41202;BME280;26936;50.524;8.684;2022-07-22T11:44:28;99569.22;;;29.90;39.79
41202;BME280;26936;50.524;8.684;2022-07-22T11:46:55;99563.41;;;29.83;39.70
41202;BME280;26936;50.524;8.684;2022-07-22T11:49:31;99555.28;;;29.66;40.47
41202;BME280;26936;50.524;8.684;2022-07-22T11:51:59;99554.69;;;29.83;39.60
41202;BME280;26936;50.524;8.684;2022-07-22T11:54:24;99553.31;;;29.99;39.56
41202;BME280;26936;50.524;8.684;2022-07-22T11:56:49;99549.44;;;30.04;39.78
41202;BME280;26936;50.524;8.684;2022-07-22T11:59:16;99544.25;;;29.95;40.34
41202;BME280;26936;50.524;8.684;2022-07-22T12:01:44;99546.16;;;29.92;41.32
41202;BME280;26936;50.524;8.684;2022-07-22T12:04:11;99547.28;;;30.12;40.86
41202;BME280;26936;50.524;8.684;2022-07-22T12:06:39;99550.97;;;30.27;40.81
41202;BME280;26936;50.524;8.684;2022-07-22T12:09:09;99544.97;;;30.25;40.78
41202;BME280;26936;50.524;8.684;2022-07-22T12:11:39;99529.81;;;30.42;40.32
41202;BME280;26936;50.524;8.684;2022-07-22T12:14:07;99539.53;;;30.29;39.46
41202;BME280;26936;50.524;8.684;2022-07-22T12:16:34;99534.13;;;30.26;40.34
41202;BME280;26936;50.524;8.684;2022-07-22T12:19:02;99537.22;;;30.13;40.37
41202;BME280;26936;50.524;8.684;2022-07-22T12:21:36;99536.84;;;30.16;39.63
41202;BME280;26936;50.524;8.684;2022-07-22T12:24:07;99534.91;;;30.11;39.72
41202;BME280;26936;50.524;8.684;2022-07-22T12:26:51;99523.50;;;30.13;39.94
41202;BME280;26936;50.524;8.684;2022-07-22T12:31:49;99531.78;;;30.32;40.03
41202;BME280;26936;50.524;8.684;2022-07-22T12:34:15;99535.66;;;30.19;39.41
41202;BME280;26936;50.524;8.684;2022-07-22T12:36:46;99527.53;;;30.18;39.63
41202;BME280;26936;50.524;8.684;2022-07-22T12:39:18;99525.59;;;30.28;39.97
41202;BME280;26936;50.524;8.684;2022-07-22T12:41:50;99517.69;;;30.13;38.72
41202;BME280;26936;50.524;8.684;2022-07-22T12:46:47;99514.19;;;30.15;39.66
41202;BME280;26936;50.524;8.684;2022-07-22T12:49:15;99504.28;;;30.33;40.18
41202;BME280;26936;50.524;8.684;2022-07-22T12:51:41;99499.25;;;30.18;39.10
41202;BME280;26936;50.524;8.684;2022-07-22T12:54:06;99501.81;;;30.07;40.17
41202;BME280;26936;50.524;8.684;2022-07-22T12:56:32;99501.47;;;29.95;39.55
41202;BME280;26936;50.524;8.684;2022-07-22T12:58:58;99487.84;;;30.05;39.87
41202;BME280;26936;50.524;8.684;2022-07-22T13:01:24;99491.56;;;29.98;39.45
41202;BME280;26936;50.524;8.684;2022-07-22T13:03:49;99496.78;;;29.92;41.39
41202;BME280;26936;50.524;8.684;2022-07-22T13:06:14;99490.00;;;30.05;39.88
41202;BME280;26936;50.524;8.684;2022-07-22T13:08:40;99485.41;;;29.87;40.71
41202;BME280;26936;50.524;8.684;2022-07-22T13:11:06;99480.00;;;29.68;38.58
41202;BME280;26936;50.524;8.684;2022-07-22T13:13:31;99482.91;;;29.76;39.86
41202;BME280;26936;50.524;8.684;2022-07-22T13:15:56;99478.25;;;29.73;40.50
41202;BME280;26936;50.524;8.684;2022-07-22T13:18:22;99469.56;;;29.80;40.22
41202;BME280;26936;50.524;8.684;2022-07-22T13:20:47;99473.78;;;29.79;40.35
41202;BME280;26936;50.524;8.684;2022-07-22T13:23:13;99469.97;;;29.69;40.37